This is the latest recevied weather packets stored in our database for station/object KA6AKH-13. If no packets are shown the sender has not sent any weather packets the latest 1 day(s).
| Time | Temp. | Humidity | Pressure | Rain* | Wind** | Luminosity | Snow |
|---|---|---|---|---|---|---|---|
| 1778087379 | 18.33° C | 87% | 1009 hPa | 0 mm | - | - | - |
| 1778086749 | 18.33° C | 89% | 1009.2 hPa | 0 mm | - | - | - |
| 1778085519 | 17.78° C | 93% | 1009.4 hPa | 0 mm | - | - | - |
| 1778082586 | 17.22° C | 96% | 1009.7 hPa | 0 mm | - | - | - |
| 1778082369 | 17.22° C | 96% | 1009.7 hPa | 0 mm | - | - | - |
| 1778080509 | 16.67° C | 96% | 1009.7 hPa | 0 mm | - | - | - |
| 1778078679 | 16.67° C | 95% | 1010.4 hPa | 0 mm | - | - | - |
| 1778078049 | 16.67° C | 95% | 1010.3 hPa | 0 mm | - | - | - |
| 1778076219 | 16.67° C | 94% | 1010.2 hPa | 0 mm | - | - | - |
| 1778073729 | 17.22° C | 90% | 1010.7 hPa | 0 mm | - | - | - |
| 1778071869 | 17.78° C | 88% | 1010.2 hPa | 0.25 mm | - | - | - |
| 1778070039 | 17.78° C | 85% | 1010.1 hPa | 0.25 mm | - | - | - |
| 1778069409 | 18.33° C | 83% | 1010.4 hPa | 0 mm | - | - | - |
| 1778068179 | 18.89° C | 78% | 1010.3 hPa | 0 mm | - | - | - |
| 1778065718 | 18.89° C | 76% | 1009.8 hPa | 0 mm | - | - | - |
| 1778064566 | 18.89° C | 74% | 1009.6 hPa | 0 mm | - | - | - |
| 1778064459 | 18.89° C | 74% | 1009.6 hPa | 0 mm | - | - | - |
| 1778063259 | 18.89° C | 73% | 1009.6 hPa | 0 mm | - | - | - |
| 1778060799 | 19.44° C | 72% | 1009.5 hPa | 0 mm | - | - | - |
| 1778057679 | 20° C | 70% | 1009.8 hPa | 0 mm | - | - | - |
| 1778057079 | 20° C | 69% | 1009.9 hPa | 0 mm | - | - | - |
| 1778056449 | 20° C | 68% | 1009.8 hPa | 0 mm | - | - | - |
| 1778055219 | 20° C | 67% | 1009.8 hPa | 0 mm | - | - | - |
| 1778054619 | 20.56° C | 66% | 1009.8 hPa | 0 mm | - | - | - |
| 1778053389 | 20.56° C | 66% | 1009.6 hPa | 0 mm | - | - | - |
* Rain latest hour (hover to see other rain measurements)
** Current wind speed in m/s (hover to see current wind gust speed)